sensor_id;sensor_type;location;lat;lon;timestamp;P1;durP1;ratioP1;P2;durP2;ratioP2
52342;SDS011;38277;51.972;4.624;2023-03-14T00:04:26;16.5;;;3.8;;
52342;SDS011;38277;51.972;4.624;2023-03-14T00:09:37;16.9;;;3.9;;
52342;SDS011;38277;51.972;4.624;2023-03-14T00:13:14;16.7;;;4.0;;
52342;SDS011;38277;51.972;4.624;2023-03-14T00:17:57;11.7;;;3.1;;
52342;SDS011;38277;51.972;4.624;2023-03-14T00:22:10;14.4;;;3.5;;
52342;SDS011;38277;51.972;4.624;2023-03-14T00:27:00;12.3;;;2.6;;
52342;SDS011;38277;51.972;4.624;2023-03-14T00:35:55;14.6;;;3.5;;
52342;SDS011;38277;51.972;4.624;2023-03-14T00:40:19;17.6;;;3.7;;
52342;SDS011;38277;51.972;4.624;2023-03-14T00:44:37;15.0;;;4.0;;
52342;SDS011;38277;51.972;4.624;2023-03-14T00:53:41;14.5;;;4.0;;
52342;SDS011;38277;51.972;4.624;2023-03-14T00:58:08;14.6;;;3.6;;
52342;SDS011;38277;51.972;4.624;2023-03-14T01:02:53;16.4;;;4.0;;
52342;SDS011;38277;51.972;4.624;2023-03-14T01:07:32;17.6;;;3.9;;
52342;SDS011;38277;51.972;4.624;2023-03-14T01:11:38;15.2;;;4.4;;
52342;SDS011;38277;51.972;4.624;2023-03-14T01:16:12;19.4;;;3.9;;
52342;SDS011;38277;51.972;4.624;2023-03-14T01:20:36;20.0;;;4.1;;
52342;SDS011;38277;51.972;4.624;2023-03-14T01:29:38;18.1;;;3.3;;
52342;SDS011;38277;51.972;4.624;2023-03-14T01:34:18;14.0;;;3.5;;
52342;SDS011;38277;51.972;4.624;2023-03-14T01:38:59;18.6;;;3.9;;
52342;SDS011;38277;51.972;4.624;2023-03-14T01:43:14;16.2;;;3.8;;
52342;SDS011;38277;51.972;4.624;2023-03-14T01:47:55;19.2;;;4.3;;
52342;SDS011;38277;51.972;4.624;2023-03-14T01:56:39;13.8;;;3.5;;
52342;SDS011;38277;51.972;4.624;2023-03-14T02:05:44;15.1;;;3.1;;
52342;SDS011;38277;51.972;4.624;2023-03-14T02:10:54;13.5;;;3.3;;
52342;SDS011;38277;51.972;4.624;2023-03-14T02:14:59;10.0;;;2.6;;
52342;SDS011;38277;51.972;4.624;2023-03-14T02:19:12;9.8;;;2.8;;
52342;SDS011;38277;51.972;4.624;2023-03-14T02:23:48;16.3;;;2.9;;
52342;SDS011;38277;51.972;4.624;2023-03-14T02:28:31;11.5;;;3.2;;
52342;SDS011;38277;51.972;4.624;2023-03-14T02:32:37;16.3;;;3.1;;
52342;SDS011;38277;51.972;4.624;2023-03-14T02:38:03;8.0;;;2.9;;
52342;SDS011;38277;51.972;4.624;2023-03-14T02:41:55;15.0;;;3.2;;
52342;SDS011;38277;51.972;4.624;2023-03-14T02:46:24;17.1;;;4.3;;
52342;SDS011;38277;51.972;4.624;2023-03-14T02:50:57;17.8;;;4.2;;
52342;SDS011;38277;51.972;4.624;2023-03-14T02:55:07;14.4;;;3.1;;
52342;SDS011;38277;51.972;4.624;2023-03-14T02:59:57;14.9;;;3.2;;
52342;SDS011;38277;51.972;4.624;2023-03-14T03:04:05;13.0;;;3.0;;
52342;SDS011;38277;51.972;4.624;2023-03-14T03:08:44;14.2;;;2.6;;
52342;SDS011;38277;51.972;4.624;2023-03-14T03:14:17;14.2;;;3.2;;
52342;SDS011;38277;51.972;4.624;2023-03-14T03:17:51;11.4;;;3.1;;
52342;SDS011;38277;51.972;4.624;2023-03-14T03:22:04;11.7;;;3.4;;
52342;SDS011;38277;51.972;4.624;2023-03-14T03:27:22;12.6;;;2.8;;
52342;SDS011;38277;51.972;4.624;2023-03-14T03:31:10;11.8;;;3.2;;
52342;SDS011;38277;51.972;4.624;2023-03-14T03:36:26;16.1;;;3.2;;
52342;SDS011;38277;51.972;4.624;2023-03-14T03:41:09;18.7;;;3.5;;
52342;SDS011;38277;51.972;4.624;2023-03-14T03:45:26;12.6;;;2.7;;
52342;SDS011;38277;51.972;4.624;2023-03-14T03:49:06;11.9;;;3.5;;
52342;SDS011;38277;51.972;4.624;2023-03-14T03:53:33;17.2;;;3.7;;
52342;SDS011;38277;51.972;4.624;2023-03-14T03:58:16;14.4;;;3.1;;
52342;SDS011;38277;51.972;4.624;2023-03-14T04:03:27;11.1;;;3.0;;
52342;SDS011;38277;51.972;4.624;2023-03-14T04:07:09;16.9;;;3.3;;
52342;SDS011;38277;51.972;4.624;2023-03-14T04:11:55;11.9;;;2.6;;
52342;SDS011;38277;51.972;4.624;2023-03-14T04:16:23;14.7;;;3.3;;
52342;SDS011;38277;51.972;4.624;2023-03-14T04:20:41;10.6;;;3.3;;
52342;SDS011;38277;51.972;4.624;2023-03-14T04:25:20;15.3;;;3.4;;
52342;SDS011;38277;51.972;4.624;2023-03-14T04:29:41;15.9;;;3.5;;
52342;SDS011;38277;51.972;4.624;2023-03-14T04:34:22;13.4;;;3.7;;
52342;SDS011;38277;51.972;4.624;2023-03-14T04:43:11;10.0;;;2.8;;
52342;SDS011;38277;51.972;4.624;2023-03-14T04:48:00;11.1;;;2.8;;
52342;SDS011;38277;51.972;4.624;2023-03-14T04:52:13;7.9;;;2.5;;
52342;SDS011;38277;51.972;4.624;2023-03-14T04:56:33;11.9;;;3.4;;
52342;SDS011;38277;51.972;4.624;2023-03-14T05:05:46;9.3;;;2.5;;
52342;SDS011;38277;51.972;4.624;2023-03-14T05:10:08;12.3;;;2.7;;
52342;SDS011;38277;51.972;4.624;2023-03-14T05:32:38;13.8;;;3.7;;
52342;SDS011;38277;51.972;4.624;2023-03-14T05:41:41;8.6;;;3.0;;
52342;SDS011;38277;51.972;4.624;2023-03-14T05:46:22;6.7;;;2.6;;
52342;SDS011;38277;51.972;4.624;2023-03-14T05:50:45;8.4;;;2.3;;
52342;SDS011;38277;51.972;4.624;2023-03-14T06:00:06;4.6;;;1.3;;
52342;SDS011;38277;51.972;4.624;2023-03-14T06:04:29;5.6;;;1.2;;
52342;SDS011;38277;51.972;4.624;2023-03-14T06:08:47;4.4;;;1.3;;
52342;SDS011;38277;51.972;4.624;2023-03-14T06:17:59;5.8;;;1.3;;
52342;SDS011;38277;51.972;4.624;2023-03-14T06:22:13;5.7;;;1.6;;
52342;SDS011;38277;51.972;4.624;2023-03-14T06:28:03;8.2;;;1.4;;
52342;SDS011;38277;51.972;4.624;2023-03-14T06:40:29;5.7;;;1.5;;
52342;SDS011;38277;51.972;4.624;2023-03-14T06:44:36;6.0;;;1.6;;
52342;SDS011;38277;51.972;4.624;2023-03-14T06:53:34;5.6;;;1.5;;
52342;SDS011;38277;51.972;4.624;2023-03-14T06:58:03;5.0;;;1.4;;
52342;SDS011;38277;51.972;4.624;2023-03-14T07:03:27;7.0;;;1.9;;
52342;SDS011;38277;51.972;4.624;2023-03-14T07:07:11;11.4;;;2.2;;
52342;SDS011;38277;51.972;4.624;2023-03-14T07:12:01;9.0;;;2.7;;
52342;SDS011;38277;51.972;4.624;2023-03-14T07:16:27;8.6;;;2.4;;
52342;SDS011;38277;51.972;4.624;2023-03-14T07:21:37;4.8;;;2.0;;
52342;SDS011;38277;51.972;4.624;2023-03-14T07:25:05;10.7;;;1.9;;
52342;SDS011;38277;51.972;4.624;2023-03-14T07:30:02;12.1;;;2.8;;
52342;SDS011;38277;51.972;4.624;2023-03-14T07:34:10;4.8;;;1.4;;
52342;SDS011;38277;51.972;4.624;2023-03-14T07:38:34;8.0;;;2.2;;
52342;SDS011;38277;51.972;4.624;2023-03-14T07:43:31;8.3;;;2.2;;
52342;SDS011;38277;51.972;4.624;2023-03-14T07:47:38;5.7;;;1.3;;
52342;SDS011;38277;51.972;4.624;2023-03-14T07:52:31;5.0;;;1.4;;
52342;SDS011;38277;51.972;4.624;2023-03-14T07:57:30;6.8;;;1.6;;
52342;SDS011;38277;51.972;4.624;2023-03-14T08:01:22;6.5;;;2.2;;
52342;SDS011;38277;51.972;4.624;2023-03-14T08:06:02;14.9;;;2.9;;
52342;SDS011;38277;51.972;4.624;2023-03-14T08:10:10;9.8;;;2.9;;
52342;SDS011;38277;51.972;4.624;2023-03-14T08:14:33;14.1;;;2.5;;
52342;SDS011;38277;51.972;4.624;2023-03-14T08:19:17;12.8;;;2.8;;
52342;SDS011;38277;51.972;4.624;2023-03-14T08:24:02;6.6;;;2.5;;
52342;SDS011;38277;51.972;4.624;2023-03-14T08:28:26;9.1;;;1.9;;
52342;SDS011;38277;51.972;4.624;2023-03-14T08:32:38;9.8;;;2.1;;
52342;SDS011;38277;51.972;4.624;2023-03-14T08:37:25;6.1;;;1.7;;
52342;SDS011;38277;51.972;4.624;2023-03-14T08:41:41;6.4;;;1.5;;
52342;SDS011;38277;51.972;4.624;2023-03-14T08:46:31;6.0;;;1.3;;
52342;SDS011;38277;51.972;4.624;2023-03-14T08:50:34;4.6;;;1.1;;
52342;SDS011;38277;51.972;4.624;2023-03-14T08:55:20;6.5;;;1.7;;
52342;SDS011;38277;51.972;4.624;2023-03-14T08:59:58;6.5;;;1.5;;
52342;SDS011;38277;51.972;4.624;2023-03-14T09:04:23;5.7;;;1.8;;
52342;SDS011;38277;51.972;4.624;2023-03-14T09:08:42;12.2;;;3.0;;
52342;SDS011;38277;51.972;4.624;2023-03-14T09:17:45;14.8;;;3.6;;
52342;SDS011;38277;51.972;4.624;2023-03-14T09:22:09;12.9;;;2.6;;
52342;SDS011;38277;51.972;4.624;2023-03-14T09:26:48;12.6;;;2.7;;
52342;SDS011;38277;51.972;4.624;2023-03-14T09:31:11;19.2;;;3.4;;
52342;SDS011;38277;51.972;4.624;2023-03-14T09:36:42;11.3;;;3.2;;
52342;SDS011;38277;51.972;4.624;2023-03-14T09:40:19;17.4;;;3.9;;
52342;SDS011;38277;51.972;4.624;2023-03-14T09:45:02;25.3;;;5.4;;
52342;SDS011;38277;51.972;4.624;2023-03-14T09:49:09;18.8;;;4.4;;
52342;SDS011;38277;51.972;4.624;2023-03-14T09:53:55;21.9;;;3.8;;
52342;SDS011;38277;51.972;4.624;2023-03-14T09:58:24;22.3;;;3.5;;
52342;SDS011;38277;51.972;4.624;2023-03-14T10:02:54;19.1;;;3.8;;
52342;SDS011;38277;51.972;4.624;2023-03-14T10:07:08;16.9;;;3.7;;
52342;SDS011;38277;51.972;4.624;2023-03-14T10:11:43;22.4;;;4.0;;
52342;SDS011;38277;51.972;4.624;2023-03-14T10:16:30;19.9;;;4.1;;
52342;SDS011;38277;51.972;4.624;2023-03-14T10:20:48;17.8;;;4.9;;
52342;SDS011;38277;51.972;4.624;2023-03-14T10:25:25;19.4;;;3.6;;
52342;SDS011;38277;51.972;4.624;2023-03-14T10:29:55;18.1;;;4.5;;
52342;SDS011;38277;51.972;4.624;2023-03-14T10:34:25;15.9;;;3.9;;
52342;SDS011;38277;51.972;4.624;2023-03-14T10:38:39;21.1;;;4.5;;
52342;SDS011;38277;51.972;4.624;2023-03-14T10:47:58;29.0;;;6.6;;
52342;SDS011;38277;51.972;4.624;2023-03-14T10:52:24;24.2;;;5.4;;
52342;SDS011;38277;51.972;4.624;2023-03-14T10:56:56;15.1;;;3.8;;
52342;SDS011;38277;51.972;4.624;2023-03-14T11:01:44;23.5;;;4.4;;
52342;SDS011;38277;51.972;4.624;2023-03-14T11:06:20;23.4;;;4.6;;
52342;SDS011;38277;51.972;4.624;2023-03-14T11:10:36;18.1;;;4.2;;
52342;SDS011;38277;51.972;4.624;2023-03-14T11:15:02;17.1;;;4.6;;
52342;SDS011;38277;51.972;4.624;2023-03-14T11:19:24;16.3;;;3.7;;
52342;SDS011;38277;51.972;4.624;2023-03-14T11:23:38;20.5;;;4.9;;
52342;SDS011;38277;51.972;4.624;2023-03-14T11:28:26;16.9;;;3.4;;
52342;SDS011;38277;51.972;4.624;2023-03-14T11:32:56;17.2;;;3.8;;
52342;SDS011;38277;51.972;4.624;2023-03-14T11:37:15;19.1;;;4.1;;
52342;SDS011;38277;51.972;4.624;2023-03-14T11:41:49;15.5;;;3.1;;
52342;SDS011;38277;51.972;4.624;2023-03-14T11:46:10;20.4;;;4.1;;
52342;SDS011;38277;51.972;4.624;2023-03-14T11:50:40;12.9;;;3.0;;
52342;SDS011;38277;51.972;4.624;2023-03-14T11:59:51;17.1;;;4.0;;
52342;SDS011;38277;51.972;4.624;2023-03-14T12:04:23;13.9;;;4.1;;
52342;SDS011;38277;51.972;4.624;2023-03-14T12:08:47;11.4;;;2.6;;
52342;SDS011;38277;51.972;4.624;2023-03-14T12:13:18;13.3;;;2.4;;
52342;SDS011;38277;51.972;4.624;2023-03-14T12:18:32;16.2;;;3.0;;
52342;SDS011;38277;51.972;4.624;2023-03-14T12:22:21;10.9;;;2.7;;
52342;SDS011;38277;51.972;4.624;2023-03-14T12:26:57;8.9;;;2.0;;
52342;SDS011;38277;51.972;4.624;2023-03-14T12:31:44;13.4;;;2.4;;
52342;SDS011;38277;51.972;4.624;2023-03-14T12:36:48;10.3;;;2.4;;
52342;SDS011;38277;51.972;4.624;2023-03-14T12:40:15;8.4;;;3.0;;
52342;SDS011;38277;51.972;4.624;2023-03-14T12:44:45;12.0;;;2.6;;
52342;SDS011;38277;51.972;4.624;2023-03-14T12:49:15;12.5;;;3.3;;
52342;SDS011;38277;51.972;4.624;2023-03-14T12:54:19;13.0;;;2.2;;
52342;SDS011;38277;51.972;4.624;2023-03-14T12:58:25;10.5;;;2.4;;
52342;SDS011;38277;51.972;4.624;2023-03-14T13:02:49;11.3;;;2.7;;
52342;SDS011;38277;51.972;4.624;2023-03-14T13:07:36;8.4;;;2.3;;
52342;SDS011;38277;51.972;4.624;2023-03-14T13:11:58;9.8;;;2.6;;
52342;SDS011;38277;51.972;4.624;2023-03-14T13:16:14;8.8;;;2.0;;
52342;SDS011;38277;51.972;4.624;2023-03-14T13:20:59;10.6;;;2.2;;
52342;SDS011;38277;51.972;4.624;2023-03-14T13:25:09;10.4;;;2.3;;
52342;SDS011;38277;51.972;4.624;2023-03-14T13:29:49;9.5;;;2.3;;
52342;SDS011;38277;51.972;4.624;2023-03-14T13:34:24;6.4;;;2.0;;
52342;SDS011;38277;51.972;4.624;2023-03-14T13:38:55;12.8;;;3.0;;
52342;SDS011;38277;51.972;4.624;2023-03-14T13:43:24;10.7;;;2.4;;
52342;SDS011;38277;51.972;4.624;2023-03-14T13:48:29;8.7;;;2.2;;
52342;SDS011;38277;51.972;4.624;2023-03-14T13:52:27;9.3;;;2.3;;
52342;SDS011;38277;51.972;4.624;2023-03-14T13:56:40;8.0;;;2.2;;
52342;SDS011;38277;51.972;4.624;2023-03-14T14:01:29;9.7;;;2.4;;
52342;SDS011;38277;51.972;4.624;2023-03-14T14:06:45;11.8;;;2.4;;
52342;SDS011;38277;51.972;4.624;2023-03-14T14:10:20;12.4;;;2.5;;
52342;SDS011;38277;51.972;4.624;2023-03-14T14:15:00;7.8;;;2.0;;
52342;SDS011;38277;51.972;4.624;2023-03-14T14:19:29;10.2;;;2.4;;
52342;SDS011;38277;51.972;4.624;2023-03-14T14:23:53;15.6;;;3.0;;
52342;SDS011;38277;51.972;4.624;2023-03-14T14:28:15;8.2;;;2.0;;
52342;SDS011;38277;51.972;4.624;2023-03-14T14:32:49;9.2;;;2.2;;
52342;SDS011;38277;51.972;4.624;2023-03-14T14:37:21;12.1;;;2.3;;
52342;SDS011;38277;51.972;4.624;2023-03-14T14:41:57;8.8;;;1.9;;
52342;SDS011;38277;51.972;4.624;2023-03-14T14:46:21;10.1;;;2.3;;
52342;SDS011;38277;51.972;4.624;2023-03-14T14:50:55;10.3;;;2.3;;
52342;SDS011;38277;51.972;4.624;2023-03-14T14:55:34;8.0;;;1.8;;
52342;SDS011;38277;51.972;4.624;2023-03-14T14:59:42;9.6;;;2.2;;
52342;SDS011;38277;51.972;4.624;2023-03-14T15:04:14;9.4;;;2.6;;
52342;SDS011;38277;51.972;4.624;2023-03-14T15:08:58;11.8;;;2.4;;
52342;SDS011;38277;51.972;4.624;2023-03-14T15:13:06;10.7;;;2.0;;
52342;SDS011;38277;51.972;4.624;2023-03-14T15:17:50;7.3;;;1.9;;
52342;SDS011;38277;51.972;4.624;2023-03-14T15:22:21;8.4;;;2.1;;
52342;SDS011;38277;51.972;4.624;2023-03-14T15:26:59;4.1;;;1.7;;
52342;SDS011;38277;51.972;4.624;2023-03-14T15:31:24;9.4;;;2.6;;
52342;SDS011;38277;51.972;4.624;2023-03-14T15:35:58;10.3;;;2.4;;
52342;SDS011;38277;51.972;4.624;2023-03-14T15:40:11;9.8;;;1.8;;
52342;SDS011;38277;51.972;4.624;2023-03-14T15:44:34;6.2;;;1.5;;
52342;SDS011;38277;51.972;4.624;2023-03-14T15:49:16;7.5;;;1.9;;
52342;SDS011;38277;51.972;4.624;2023-03-14T15:54:26;5.9;;;1.6;;
52342;SDS011;38277;51.972;4.624;2023-03-14T15:58:25;6.7;;;1.8;;
52342;SDS011;38277;51.972;4.624;2023-03-14T16:02:50;7.0;;;1.7;;
52342;SDS011;38277;51.972;4.624;2023-03-14T16:07:10;6.2;;;1.7;;
52342;SDS011;38277;51.972;4.624;2023-03-14T16:11:37;8.6;;;1.7;;
52342;SDS011;38277;51.972;4.624;2023-03-14T16:16:29;7.2;;;1.8;;
52342;SDS011;38277;51.972;4.624;2023-03-14T16:25:13;8.8;;;2.2;;
52342;SDS011;38277;51.972;4.624;2023-03-14T16:29:47;9.2;;;2.0;;
52342;SDS011;38277;51.972;4.624;2023-03-14T16:34:09;13.6;;;2.1;;
52342;SDS011;38277;51.972;4.624;2023-03-14T16:38:42;12.1;;;1.8;;
52342;SDS011;38277;51.972;4.624;2023-03-14T16:43:16;5.5;;;1.8;;
52342;SDS011;38277;51.972;4.624;2023-03-14T16:47:39;6.6;;;2.0;;
52342;SDS011;38277;51.972;4.624;2023-03-14T16:52:29;9.7;;;2.0;;
52342;SDS011;38277;51.972;4.624;2023-03-14T17:01:32;9.7;;;2.4;;
52342;SDS011;38277;51.972;4.624;2023-03-14T17:05:43;11.9;;;2.4;;
52342;SDS011;38277;51.972;4.624;2023-03-14T17:10:30;9.8;;;2.3;;
52342;SDS011;38277;51.972;4.624;2023-03-14T17:14:54;13.1;;;2.4;;
52342;SDS011;38277;51.972;4.624;2023-03-14T17:19:14;11.2;;;2.2;;
52342;SDS011;38277;51.972;4.624;2023-03-14T17:23:36;10.9;;;2.9;;
52342;SDS011;38277;51.972;4.624;2023-03-14T17:28:25;14.9;;;2.8;;
52342;SDS011;38277;51.972;4.624;2023-03-14T17:37:06;9.1;;;2.2;;
52342;SDS011;38277;51.972;4.624;2023-03-14T17:41:43;12.6;;;2.8;;
52342;SDS011;38277;51.972;4.624;2023-03-14T17:46:14;12.0;;;2.4;;
52342;SDS011;38277;51.972;4.624;2023-03-14T17:50:49;9.6;;;2.2;;
52342;SDS011;38277;51.972;4.624;2023-03-14T17:55:24;10.9;;;2.9;;
52342;SDS011;38277;51.972;4.624;2023-03-14T17:59:57;11.4;;;3.6;;
52342;SDS011;38277;51.972;4.624;2023-03-14T18:04:05;9.3;;;2.9;;
52342;SDS011;38277;51.972;4.624;2023-03-14T18:13:04;11.6;;;3.2;;
52342;SDS011;38277;51.972;4.624;2023-03-14T18:17:45;10.2;;;2.3;;
52342;SDS011;38277;51.972;4.624;2023-03-14T18:22:26;8.3;;;1.6;;
52342;SDS011;38277;51.972;4.624;2023-03-14T18:31:08;6.5;;;1.8;;
52342;SDS011;38277;51.972;4.624;2023-03-14T18:35:33;10.0;;;3.0;;
52342;SDS011;38277;51.972;4.624;2023-03-14T18:40:21;9.9;;;2.8;;
52342;SDS011;38277;51.972;4.624;2023-03-14T18:49:14;8.8;;;3.0;;
52342;SDS011;38277;51.972;4.624;2023-03-14T18:53:38;8.5;;;2.6;;
52342;SDS011;38277;51.972;4.624;2023-03-14T18:58:29;9.4;;;3.0;;
52342;SDS011;38277;51.972;4.624;2023-03-14T19:02:56;11.5;;;3.2;;
52342;SDS011;38277;51.972;4.624;2023-03-14T19:07:24;8.3;;;2.9;;
52342;SDS011;38277;51.972;4.624;2023-03-14T19:11:52;12.0;;;3.1;;
52342;SDS011;38277;51.972;4.624;2023-03-14T19:16:28;9.2;;;2.6;;
52342;SDS011;38277;51.972;4.624;2023-03-14T19:25:15;7.7;;;2.7;;
52342;SDS011;38277;51.972;4.624;2023-03-14T19:29:38;9.4;;;3.6;;
52342;SDS011;38277;51.972;4.624;2023-03-14T19:34:20;11.1;;;3.3;;
52342;SDS011;38277;51.972;4.624;2023-03-14T19:38:47;10.4;;;3.4;;
52342;SDS011;38277;51.972;4.624;2023-03-14T19:43:10;11.3;;;3.7;;
52342;SDS011;38277;51.972;4.624;2023-03-14T19:47:36;9.8;;;2.8;;
52342;SDS011;38277;51.972;4.624;2023-03-14T19:52:14;14.2;;;3.6;;
52342;SDS011;38277;51.972;4.624;2023-03-14T20:01:29;5.7;;;1.9;;
52342;SDS011;38277;51.972;4.624;2023-03-14T20:06:03;5.5;;;1.9;;
52342;SDS011;38277;51.972;4.624;2023-03-14T20:10:15;10.3;;;2.3;;
52342;SDS011;38277;51.972;4.624;2023-03-14T20:14:49;7.3;;;2.9;;
52342;SDS011;38277;51.972;4.624;2023-03-14T20:19:27;9.0;;;2.8;;
52342;SDS011;38277;51.972;4.624;2023-03-14T20:23:40;10.5;;;3.1;;
52342;SDS011;38277;51.972;4.624;2023-03-14T20:28:09;9.1;;;2.6;;
52342;SDS011;38277;51.972;4.624;2023-03-14T20:37:26;7.0;;;2.3;;
52342;SDS011;38277;51.972;4.624;2023-03-14T20:41:33;11.5;;;2.7;;
52342;SDS011;38277;51.972;4.624;2023-03-14T20:50:33;10.9;;;3.1;;
52342;SDS011;38277;51.972;4.624;2023-03-14T20:55:24;9.4;;;3.5;;
52342;SDS011;38277;51.972;4.624;2023-03-14T20:59:39;18.2;;;4.6;;
52342;SDS011;38277;51.972;4.624;2023-03-14T21:04:06;10.8;;;2.9;;
52342;SDS011;38277;51.972;4.624;2023-03-14T21:13:24;24.1;;;4.2;;
52342;SDS011;38277;51.972;4.624;2023-03-14T21:17:41;12.2;;;2.9;;
52342;SDS011;38277;51.972;4.624;2023-03-14T21:22:20;10.9;;;2.4;;
52342;SDS011;38277;51.972;4.624;2023-03-14T21:31:28;12.8;;;2.8;;
52342;SDS011;38277;51.972;4.624;2023-03-14T21:36:01;7.3;;;1.8;;
52342;SDS011;38277;51.972;4.624;2023-03-14T21:40:05;8.2;;;1.6;;
52342;SDS011;38277;51.972;4.624;2023-03-14T21:49:26;6.7;;;2.0;;
52342;SDS011;38277;51.972;4.624;2023-03-14T21:54:00;5.8;;;1.4;;
52342;SDS011;38277;51.972;4.624;2023-03-14T21:58:28;5.2;;;1.8;;
52342;SDS011;38277;51.972;4.624;2023-03-14T22:07:31;3.8;;;1.3;;
52342;SDS011;38277;51.972;4.624;2023-03-14T22:11:43;5.0;;;1.0;;
52342;SDS011;38277;51.972;4.624;2023-03-14T22:16:27;2.7;;;1.2;;
52342;SDS011;38277;51.972;4.624;2023-03-14T22:25:03;3.1;;;1.4;;
52342;SDS011;38277;51.972;4.624;2023-03-14T22:29:44;3.8;;;1.3;;
52342;SDS011;38277;51.972;4.624;2023-03-14T22:34:27;4.3;;;1.3;;
52342;SDS011;38277;51.972;4.624;2023-03-14T22:38:38;12.5;;;1.8;;
52342;SDS011;38277;51.972;4.624;2023-03-14T22:43:08;6.1;;;2.4;;
52342;SDS011;38277;51.972;4.624;2023-03-14T22:47:39;6.4;;;2.0;;
52342;SDS011;38277;51.972;4.624;2023-03-14T22:52:16;8.4;;;3.4;;
52342;SDS011;38277;51.972;4.624;2023-03-14T22:56:52;6.8;;;2.1;;
52342;SDS011;38277;51.972;4.624;2023-03-14T23:01:03;5.4;;;2.2;;
52342;SDS011;38277;51.972;4.624;2023-03-14T23:05:34;7.2;;;2.6;;
52342;SDS011;38277;51.972;4.624;2023-03-14T23:14:39;5.4;;;2.2;;
52342;SDS011;38277;51.972;4.624;2023-03-14T23:19:20;4.5;;;1.9;;
52342;SDS011;38277;51.972;4.624;2023-03-14T23:23:43;5.6;;;2.5;;
52342;SDS011;38277;51.972;4.624;2023-03-14T23:28:23;4.8;;;2.1;;
52342;SDS011;38277;51.972;4.624;2023-03-14T23:32:37;5.2;;;1.9;;
52342;SDS011;38277;51.972;4.624;2023-03-14T23:37:08;4.7;;;2.1;;
52342;SDS011;38277;51.972;4.624;2023-03-14T23:41:42;2.9;;;1.8;;
52342;SDS011;38277;51.972;4.624;2023-03-14T23:51:47;2.3;;;1.1;;
52342;SDS011;38277;51.972;4.624;2023-03-14T23:55:24;2.8;;;0.9;;
52342;SDS011;38277;51.972;4.624;2023-03-14T23:59:44;1.2;;;0.9;;
